Terminal Aerodrome Forecast
Issued by NWS Wilmington, OH

Current Version | Previous Version | Graphics & Text | Print | Product List | Glossary On
Versions: 1 2 3 4 5 6 7 8 9 10 11 12 13 14 15 16 17 18 19 20
172
FTUS41 KILN 182336
TAFCMH
TAF
KCMH 182336Z 1900/1924 22007KT P6SM BKN100
     FM190800 26006KT P6SM BKN025
     FM191100 27006KT 3SM BR BKN008
     FM191500 28005KT P6SM SCT015
     FM191700 28006KT P6SM SCT025=

USA.gov is the U.S. government's official web portal to all federal, state and local government web resources and services.